Time;durP1;ratioP1;P1;durP2;ratioP2;P2;SDS_P1;SDS_P2;PMS_P1;PMS_P2;Temp;Humidity;BMP_temperature;BMP_pressure;BME280_temperature;BME280_humidity;BME280_pressure;Samples;Min_cycle;Max_cycle;Signal;HPM_P1;HPM_P2
2023/04/04 00:00:37;;;;;;;4.30;2.30;;;-1.30;1.00;;;;;;5054989;28;20045;-20
2023/04/04 00:03:03;;;;;;;3.20;2.43;;;-1.40;1.00;;;;;;5054404;28;20045;-20
2023/04/04 00:05:28;;;;;;;6.57;2.33;;;-1.50;1.00;;;;;;5054415;28;20036;-20
2023/04/04 00:07:54;;;;;;;7.37;3.07;;;-1.60;1.00;;;;;;5054348;28;20439;-20
2023/04/04 00:10:20;;;;;;;4.93;2.60;;;-1.60;1.00;;;;;;5053311;28;20056;-20
2023/04/04 00:12:46;;;;;;;6.47;2.90;;;-1.60;1.00;;;;;;5053211;28;20052;-20
2023/04/04 00:15:11;;;;;;;7.10;3.10;;;-1.70;20.10;;;;;;5053590;28;20486;-20
2023/04/04 00:17:37;;;;;;;6.77;3.53;;;-1.50;28.70;;;;;;5054057;28;20048;-20
2023/04/04 00:20:04;;;;;;;7.20;3.13;;;-1.70;63.30;;;;;;5054136;28;20045;-20
2023/04/04 00:22:29;;;;;;;9.53;3.77;;;-1.70;99.90;;;;;;5053127;28;20049;-20
2023/04/04 00:24:56;;;;;;;5.57;3.50;;;-1.70;99.90;;;;;;5052863;28;20045;-20
2023/04/04 00:27:21;;;;;;;10.13;3.50;;;-1.70;99.90;;;;;;5054031;28;20084;-20
2023/04/04 00:29:47;;;;;;;5.03;2.97;;;-1.70;99.90;;;;;;5054015;28;20162;-20
2023/04/04 00:32:13;;;;;;;5.43;3.10;;;-1.60;99.90;;;;;;5052671;28;20053;-20
2023/04/04 00:34:39;;;;;;;5.30;2.70;;;-1.70;99.90;;;;;;5053722;28;20045;-20
2023/04/04 00:37:06;;;;;;;7.60;2.90;;;-1.70;99.90;;;;;;5054056;28;20082;-20
2023/04/04 00:39:32;;;;;;;7.23;3.03;;;-1.80;99.90;;;;;;5053762;28;20055;-20
2023/04/04 00:41:58;;;;;;;5.93;3.23;;;-1.70;99.90;;;;;;5053847;28;20051;-20
2023/04/04 00:44:24;;;;;;;8.17;3.57;;;-1.70;99.90;;;;;;5054288;28;20414;-20
2023/04/04 00:46:51;;;;;;;6.27;4.17;;;-1.70;99.90;;;;;;5053724;28;20053;-20
2023/04/04 00:49:17;;;;;;;10.40;4.93;;;-1.60;99.90;;;;;;5053661;28;20053;-20
2023/04/04 00:51:43;;;;;;;9.43;4.13;;;-1.60;99.90;;;;;;5054186;28;20041;-20
2023/04/04 00:54:09;;;;;;;16.00;4.90;;;-1.60;99.90;;;;;;5054184;28;20078;-20
2023/04/04 00:56:38;;;;;;;15.07;5.37;;;-1.50;1.00;;;;;;5053015;28;20049;-20
2023/04/04 00:59:05;;;;;;;15.13;5.60;;;-1.30;1.00;;;;;;5053512;28;20052;-20
2023/04/04 01:01:31;;;;;;;10.50;5.70;;;-1.10;1.00;;;;;;5052868;28;20056;-20
2023/04/04 01:03:57;;;;;;;12.17;5.43;;;-1.20;1.00;;;;;;5052835;28;20052;-20
2023/04/04 01:06:23;;;;;;;11.90;5.03;;;-1.10;1.00;;;;;;5053504;28;20059;-20
2023/04/04 01:08:50;;;;;;;13.67;6.10;;;-1.00;1.00;;;;;;5053473;28;20395;-20
2023/04/04 01:11:16;;;;;;;13.40;6.13;;;-0.90;1.00;;;;;;5053495;28;20106;-20
2023/04/04 01:13:43;;;;;;;14.77;6.33;;;-0.80;95.30;;;;;;5051785;28;20061;-20
2023/04/04 01:16:09;;;;;;;15.07;6.37;;;-0.70;99.90;;;;;;5052176;28;20045;-20
2023/04/04 01:18:37;;;;;;;17.33;6.03;;;-0.80;91.50;;;;;;5053337;28;20048;-20
2023/04/04 01:21:12;;;;;;;13.33;6.17;;;-0.70;90.60;;;;;;5053400;28;20107;-20
2023/04/04 01:24:01;;;;;;;12.20;6.47;;;-0.80;68.00;;;;;;5053361;28;20041;-20
2023/04/04 01:26:27;;;;;;;13.60;6.30;;;-0.80;99.90;;;;;;5053297;28;20049;-20
2023/04/04 01:28:57;;;;;;;13.63;6.27;;;-0.70;99.90;;;;;;5052599;28;20053;-20
2023/04/04 01:31:37;;;;;;;21.20;8.00;;;-0.80;99.90;;;;;;5053567;28;20051;-20
2023/04/04 01:34:30;;;;;;;12.73;6.40;;;-0.80;99.90;;;;;;5053762;28;20091;-20
2023/04/04 01:37:05;;;;;;;16.57;6.97;;;-0.80;99.90;;;;;;5053303;28;20056;-20
2023/04/04 01:39:46;;;;;;;16.50;6.43;;;-0.80;99.90;;;;;;5053800;28;20088;-20
2023/04/04 01:42:13;;;;;;;16.33;6.70;;;-0.80;99.90;;;;;;5053786;28;20063;-20
2023/04/04 01:44:40;;;;;;;17.13;6.43;;;-0.90;99.90;;;;;;5052574;28;20051;-20
2023/04/04 01:47:09;;;;;;;12.83;6.10;;;-0.90;99.90;;;;;;5053180;28;20060;-20
2023/04/04 01:49:34;;;;;;;14.53;6.63;;;-0.90;99.90;;;;;;5053079;28;20483;-20
2023/04/04 01:52:01;;;;;;;23.93;7.37;;;-0.90;99.90;;;;;;5053853;28;20064;-20
2023/04/04 01:54:27;;;;;;;17.67;7.43;;;-0.90;99.90;;;;;;5053507;28;20049;-20
2023/04/04 01:56:53;;;;;;;12.13;6.43;;;-0.80;99.90;;;;;;5051760;28;20060;-20
2023/04/04 01:59:18;;;;;;;15.03;7.53;;;-0.80;99.90;;;;;;5052977;28;20045;-20
2023/04/04 02:01:44;;;;;;;12.20;6.20;;;-0.80;99.90;;;;;;5052689;28;20045;-20
2023/04/04 02:04:11;;;;;;;15.67;7.10;;;-0.80;99.90;;;;;;5052970;28;20053;-20
2023/04/04 02:06:39;;;;;;;13.47;6.80;;;-0.80;99.90;;;;;;5052005;28;20053;-20
2023/04/04 02:09:05;;;;;;;10.93;6.87;;;-0.80;99.90;;;;;;5053513;28;20048;-20
2023/04/04 02:11:31;;;;;;;11.30;6.23;;;-0.70;99.90;;;;;;5055252;28;20048;-20
2023/04/04 02:13:57;;;;;;;13.93;6.63;;;-0.70;99.90;;;;;;5056374;28;20065;-20
2023/04/04 02:16:23;;;;;;;12.60;6.57;;;-0.70;99.90;;;;;;5056464;28;20045;-20
2023/04/04 02:18:48;;;;;;;13.80;5.63;;;-0.80;99.90;;;;;;5056641;28;20051;-20
2023/04/04 02:21:14;;;;;;;16.73;6.00;;;-0.80;99.90;;;;;;5056361;28;20040;-20
2023/04/04 02:23:40;;;;;;;16.57;6.30;;;-0.80;99.90;;;;;;5056365;28;20088;-20
2023/04/04 02:26:06;;;;;;;12.90;5.87;;;-0.70;99.90;;;;;;5056591;28;20045;-20
2023/04/04 02:28:32;;;;;;;14.80;6.20;;;-0.90;99.90;;;;;;5056252;28;20045;-20
2023/04/04 02:31:01;;;;;;;9.77;5.37;;;-0.90;99.90;;;;;;5056425;28;20490;-20
2023/04/04 02:33:28;;;;;;;23.63;6.37;;;-0.90;99.90;;;;;;5056327;28;20037;-20
2023/04/04 02:35:57;;;;;;;11.03;5.53;;;-0.90;99.90;;;;;;5056336;28;20479;-20
2023/04/04 02:38:24;;;;;;;7.70;4.67;;;-0.90;99.90;;;;;;5055738;28;20503;-20
2023/04/04 02:40:51;;;;;;;10.83;4.70;;;-0.90;99.90;;;;;;5056315;28;20090;-20
2023/04/04 02:43:16;;;;;;;15.03;4.73;;;-1.00;99.90;;;;;;5055956;28;20037;-20
2023/04/04 02:45:42;;;;;;;10.63;4.40;;;-1.00;99.90;;;;;;5055879;28;20044;-20
2023/04/04 02:48:09;;;;;;;12.87;5.23;;;-1.00;99.90;;;;;;5055873;28;20126;-20
2023/04/04 02:50:35;;;;;;;11.67;4.87;;;-1.00;99.90;;;;;;5055837;28;20060;-20
2023/04/04 02:53:02;;;;;;;10.60;4.53;;;-1.00;99.90;;;;;;5055678;28;20055;-20
2023/04/04 02:55:28;;;;;;;15.43;4.43;;;-1.10;99.90;;;;;;5054513;28;20080;-20
2023/04/04 02:57:54;;;;;;;9.73;4.37;;;-1.10;99.90;;;;;;5055672;28;20088;-20
2023/04/04 03:00:19;;;;;;;13.03;4.60;;;-1.20;99.90;;;;;;5055597;28;20049;-20
2023/04/04 03:02:51;;;;;;;8.30;3.97;;;-1.20;99.90;;;;;;5054643;28;20055;-20
2023/04/04 03:05:17;;;;;;;8.20;4.33;;;-1.20;99.90;;;;;;5055846;28;20116;-20
2023/04/04 03:07:43;;;;;;;7.60;4.30;;;-1.30;99.90;;;;;;5054366;28;20048;-20
2023/04/04 03:10:09;;;;;;;11.37;4.43;;;-1.30;99.90;;;;;;5055445;28;20076;-20
2023/04/04 03:12:34;;;;;;;9.17;3.90;;;-1.30;99.90;;;;;;5055130;28;20048;-20
2023/04/04 03:15:00;;;;;;;10.83;4.53;;;-1.30;99.90;;;;;;5055614;28;20052;-20
2023/04/04 03:17:26;;;;;;;8.83;4.50;;;-1.30;99.90;;;;;;5055265;28;20049;-20
2023/04/04 03:19:52;;;;;;;6.77;4.10;;;-1.30;99.90;;;;;;5055526;28;20494;-20
2023/04/04 03:22:18;;;;;;;8.60;4.30;;;-1.30;99.90;;;;;;5053826;28;20122;-20
2023/04/04 03:24:44;;;;;;;9.63;3.90;;;-1.40;99.90;;;;;;5055710;28;20041;-20
2023/04/04 03:27:10;;;;;;;8.87;3.97;;;-1.40;99.90;;;;;;5054810;28;20048;-20
2023/04/04 03:29:35;;;;;;;10.20;4.17;;;-1.40;99.90;;;;;;5055061;28;20060;-20
2023/04/04 03:32:01;;;;;;;10.07;4.33;;;-1.40;99.90;;;;;;5054997;28;20053;-20
2023/04/04 03:34:27;;;;;;;11.17;4.17;;;-1.50;99.90;;;;;;5053451;28;20490;-20
2023/04/04 03:36:53;;;;;;;13.03;4.73;;;-1.50;99.90;;;;;;5054974;28;20048;-20
2023/04/04 03:39:19;;;;;;;10.33;4.90;;;-1.50;99.90;;;;;;5053745;28;20053;-20
2023/04/04 03:41:45;;;;;;;7.97;4.10;;;-1.50;99.90;;;;;;5054818;28;20053;-20
2023/04/04 03:44:10;;;;;;;7.90;4.13;;;-1.60;99.90;;;;;;5054466;28;20092;-20
2023/04/04 03:46:36;;;;;;;7.13;4.70;;;-1.70;99.90;;;;;;5054789;28;20047;-20
2023/04/04 03:49:02;;;;;;;10.83;4.70;;;-1.40;99.90;;;;;;5054402;28;20118;-20
2023/04/04 03:51:28;;;;;;;9.50;4.77;;;-1.60;99.90;;;;;;5054733;28;20118;-20
2023/04/04 03:53:55;;;;;;;10.83;4.67;;;-1.70;99.90;;;;;;5054580;28;20478;-20
2023/04/04 03:56:21;;;;;;;10.37;4.73;;;-1.60;99.90;;;;;;5054613;28;20076;-20
2023/04/04 03:58:47;;;;;;;12.53;4.43;;;-1.70;99.90;;;;;;5054363;28;20471;-20
2023/04/04 04:01:13;;;;;;;10.40;5.10;;;-1.70;99.90;;;;;;5055042;28;20048;-20
2023/04/04 04:03:38;;;;;;;8.60;4.60;;;-1.70;99.90;;;;;;5055268;28;20037;-20
2023/04/04 04:06:05;;;;;;;10.63;4.60;;;-1.70;99.90;;;;;;5054063;28;20045;-20
2023/04/04 04:08:31;;;;;;;10.67;5.20;;;-1.70;99.90;;;;;;5053090;28;20061;-20
2023/04/04 04:11:03;;;;;;;9.37;5.03;;;-1.70;99.90;;;;;;5037026;28;20059;-20
2023/04/04 04:13:29;;;;;;;12.38;5.47;;;-1.60;99.90;;;;;;5053944;28;20065;-20
2023/04/04 04:15:56;;;;;;;8.17;4.27;;;-1.60;99.90;;;;;;5053237;28;20056;-20
2023/04/04 04:18:21;;;;;;;9.87;4.77;;;-1.60;99.90;;;;;;5036352;28;20045;-20
2023/04/04 04:20:47;;;;;;;9.90;4.80;;;-1.60;99.90;;;;;;5054380;28;20368;-21
2023/04/04 04:23:13;;;;;;;8.07;5.10;;;-1.60;99.90;;;;;;5052596;28;20125;-20
2023/04/04 04:25:39;;;;;;;12.33;4.60;;;-1.50;99.90;;;;;;5054060;28;20507;-20
2023/04/04 04:28:05;;;;;;;8.40;4.93;;;-1.50;99.90;;;;;;5036312;28;20127;-20
2023/04/04 04:30:30;;;;;;;12.10;4.97;;;-1.50;99.90;;;;;;5052870;28;20052;-20
2023/04/04 04:32:56;;;;;;;10.90;4.43;;;-1.50;99.90;;;;;;5053628;28;20041;-20
2023/04/04 04:35:22;;;;;;;10.43;5.00;;;-1.50;99.90;;;;;;5053848;28;20064;-20
2023/04/04 04:37:48;;;;;;;7.50;4.53;;;-1.50;99.90;;;;;;5052893;28;20045;-20
2023/04/04 04:40:15;;;;;;;9.60;4.63;;;-1.60;99.90;;;;;;5052855;28;20048;-20
2023/04/04 04:42:44;;;;;;;8.87;4.13;;;-1.60;99.90;;;;;;5053520;28;20572;-20
2023/04/04 04:45:10;;;;;;;11.27;5.00;;;-1.60;99.90;;;;;;5053775;28;20041;-20
2023/04/04 04:47:36;;;;;;;9.67;4.83;;;-1.60;99.90;;;;;;5036090;28;20053;-20
2023/04/04 04:50:03;;;;;;;13.03;5.37;;;-1.70;99.90;;;;;;5053521;28;20174;-20
2023/04/04 04:52:30;;;;;;;11.63;5.37;;;-1.70;99.90;;;;;;5053757;28;20049;-20
2023/04/04 04:54:56;;;;;;;10.40;5.67;;;-1.70;99.90;;;;;;5052568;28;20049;-20
2023/04/04 04:57:22;;;;;;;11.33;5.20;;;-1.70;99.90;;;;;;5036217;28;20390;-20
2023/04/04 04:59:48;;;;;;;8.00;4.57;;;-1.70;99.90;;;;;;5054061;28;20430;-20
2023/04/04 05:02:15;;;;;;;12.23;5.40;;;-1.60;99.90;;;;;;5052441;28;20053;-20
2023/04/04 05:04:43;;;;;;;7.47;4.57;;;-1.70;99.90;;;;;;5053355;28;20517;-20
2023/04/04 05:07:11;;;;;;;10.50;5.43;;;-1.60;99.90;;;;;;5053425;28;20049;-20
2023/04/04 05:09:38;;;;;;;10.43;5.67;;;-1.60;99.90;;;;;;5052325;28;20060;-20
2023/04/04 05:12:04;;;;;;;11.43;5.37;;;-1.60;99.90;;;;;;5053459;28;20121;-21
2023/04/04 05:14:30;;;;;;;9.03;5.00;;;-1.60;99.90;;;;;;5053034;28;20114;-20
2023/04/04 05:16:56;;;;;;;9.43;5.00;;;-1.60;99.90;;;;;;5054210;28;20045;-20
2023/04/04 05:19:22;;;;;;;10.47;4.87;;;-1.60;99.90;;;;;;5053288;28;20045;-20
2023/04/04 05:21:47;;;;;;;8.53;4.70;;;-1.50;99.90;;;;;;5054175;28;20540;-20
2023/04/04 05:24:15;;;;;;;12.67;5.50;;;-1.50;99.90;;;;;;5052431;28;20497;-20
2023/04/04 05:26:42;;;;;;;7.63;4.60;;;-1.50;99.90;;;;;;5053309;28;20049;-20
2023/04/04 05:29:08;;;;;;;13.07;4.77;;;-1.40;99.90;;;;;;5052129;28;20087;-21
2023/04/04 05:31:34;;;;;;;11.33;4.30;;;-1.30;99.90;;;;;;5051842;28;20075;-21
2023/04/04 05:34:06;;;;;;;10.47;4.93;;;-1.20;99.90;;;;;;5051737;28;20107;-21
2023/04/04 05:36:36;;;;;;;13.77;4.47;;;-1.10;99.90;;;;;;5053301;28;20090;-21
2023/04/04 05:39:05;;;;;;;8.20;3.73;;;-1.00;99.90;;;;;;5052482;28;20131;-21
2023/04/04 05:41:31;;;;;;;10.60;4.40;;;-0.90;99.90;;;;;;5052153;28;20051;-21
2023/04/04 05:43:57;;;;;;;8.83;4.43;;;-0.90;99.90;;;;;;5053091;28;20518;-21
2023/04/04 05:46:23;;;;;;;10.03;3.97;;;-0.40;99.90;;;;;;5055604;28;20568;-21
2023/04/04 05:48:49;;;;;;;10.93;4.07;;;-0.70;99.90;;;;;;5056034;28;20080;-21
2023/04/04 05:51:16;;;;;;;7.00;3.60;;;-0.60;99.90;;;;;;5056277;28;20127;-21
2023/04/04 05:53:46;;;;;;;8.67;3.83;;;-0.60;99.90;;;;;;5056848;28;20045;-21
2023/04/04 05:56:15;;;;;;;8.13;4.40;;;-0.60;99.90;;;;;;5039298;28;20079;-21
2023/04/04 05:58:41;;;;;;;9.80;4.33;;;-0.50;99.90;;;;;;5056091;28;20437;-21
2023/04/04 06:01:08;;;;;;;6.80;3.70;;;-0.40;99.90;;;;;;5055606;28;20045;-21
2023/04/04 06:03:34;;;;;;;10.03;4.33;;;-0.40;99.90;;;;;;5022744;28;20094;-21
2023/04/04 06:06:05;;;;;;;7.50;4.10;;;-0.30;99.90;;;;;;5056026;28;20056;-21
2023/04/04 06:08:31;;;;;;;7.63;3.80;;;-0.20;99.90;;;;;;5056691;28;20553;-21
2023/04/04 06:10:57;;;;;;;10.73;4.20;;;-0.10;99.90;;;;;;5039387;28;20094;-21
2023/04/04 06:13:23;;;;;;;9.50;4.17;;;0.00;99.90;;;;;;5056404;28;20056;-21
2023/04/04 06:15:50;;;;;;;9.73;4.00;;;0.10;99.90;;;;;;5056839;28;20052;-21
2023/04/04 06:18:16;;;;;;;8.90;3.77;;;0.20;99.90;;;;;;5038685;28;20044;-21
2023/04/04 06:20:42;;;;;;;7.80;3.40;;;0.30;99.90;;;;;;5057030;28;20383;-21
2023/04/04 06:23:08;;;;;;;8.33;3.37;;;0.40;99.90;;;;;;5056392;28;20044;-21
2023/04/04 06:25:35;;;;;;;8.97;3.67;;;0.50;99.90;;;;;;5056327;28;20056;-21
2023/04/04 06:28:02;;;;;;;8.20;3.73;;;0.60;99.90;;;;;;5056279;28;20045;-21
2023/04/04 06:30:28;;;;;;;8.93;3.63;;;0.70;99.90;;;;;;5055329;28;20049;-21
2023/04/04 06:32:54;;;;;;;7.53;3.67;;;0.80;1.60;;;;;;5056114;28;20052;-21
2023/04/04 06:35:20;;;;;;;7.10;3.40;;;0.80;1.00;;;;;;5056136;28;20044;-21
2023/04/04 06:37:47;;;;;;;6.93;3.03;;;0.90;1.00;;;;;;5055766;28;20053;-21
2023/04/04 06:40:13;;;;;;;7.47;3.07;;;0.90;1.00;;;;;;5055992;28;20091;-21
2023/04/04 06:42:46;;;;;;;9.33;3.50;;;1.00;1.00;;;;;;5055008;28;20076;-21
2023/04/04 06:45:11;;;;;;;7.80;3.30;;;1.10;1.00;;;;;;5054809;28;20081;-21
2023/04/04 06:47:38;;;;;;;10.70;3.07;;;1.20;1.00;;;;;;5056180;28;20130;-21
2023/04/04 06:50:04;;;;;;;10.13;3.07;;;1.30;1.00;;;;;;5056113;28;20111;-21
2023/04/04 06:52:30;;;;;;;7.20;3.40;;;1.40;99.90;;;;;;5054560;28;20049;-21
2023/04/04 06:54:56;;;;;;;11.23;3.47;;;1.50;99.90;;;;;;5055736;28;20136;-21
2023/04/04 06:57:21;;;;;;;8.30;3.20;;;1.80;99.90;;;;;;5055581;28;20048;-21
2023/04/04 06:59:47;;;;;;;9.03;3.03;;;1.90;99.90;;;;;;5055660;28;20041;-21
2023/04/04 07:02:13;;;;;;;7.60;2.73;;;2.10;99.90;;;;;;5038067;28;20051;-21
2023/04/04 07:04:40;;;;;;;6.57;2.77;;;2.30;1.00;;;;;;5054584;28;20131;-21
2023/04/04 07:07:06;;;;;;;5.83;2.60;;;2.40;1.00;;;;;;5054584;28;20397;-21
2023/04/04 07:09:32;;;;;;;9.70;3.13;;;2.60;1.00;;;;;;5055457;28;20131;-21
2023/04/04 07:11:58;;;;;;;8.87;2.73;;;2.70;99.90;;;;;;5055483;28;20123;-21
2023/04/04 07:14:24;;;;;;;8.07;3.70;;;2.70;1.00;;;;;;5055322;28;20487;-21
2023/04/04 07:16:51;;;;;;;6.47;3.00;;;2.90;1.00;;;;;;5055671;28;20120;-22
2023/04/04 07:19:16;;;;;;;9.63;4.20;;;3.00;99.90;;;;;;5054217;28;20479;-22
2023/04/04 07:21:42;;;;;;;8.60;2.80;;;3.10;99.90;;;;;;5055909;28;20084;-22
2023/04/04 07:24:08;;;;;;;22.08;3.55;;;3.20;99.90;;;;;;5054453;28;20114;-22
2023/04/04 07:26:34;;;;;;;7.65;2.58;;;3.30;99.90;;;;;;5055243;28;20128;-22
2023/04/04 07:29:00;;;;;;;5.47;2.20;;;3.50;99.90;;;;;;5055246;28;20148;-22
2023/04/04 07:31:26;;;;;;;7.40;2.38;;;3.50;99.90;;;;;;5054271;28;20395;-21
2023/04/04 07:33:52;;;;;;;5.70;2.15;;;3.60;1.00;;;;;;5054977;28;20048;-21
2023/04/04 07:36:18;;;;;;;5.88;2.38;;;3.70;99.90;;;;;;5055047;28;20045;-22
2023/04/04 07:38:44;;;;;;;5.05;2.28;;;3.70;99.90;;;;;;5053727;28;20037;-22
2023/04/04 07:41:10;;;;;;;5.80;2.00;;;3.80;99.90;;;;;;5055717;28;20083;-22
2023/04/04 07:43:37;;;;;;;9.60;1.83;;;3.90;99.90;;;;;;5053912;28;20049;-22
2023/04/04 07:46:03;;;;;;;5.55;1.90;;;4.00;99.90;;;;;;5055634;28;20081;-22
2023/04/04 07:48:28;;;;;;;6.00;1.77;;;4.10;99.90;;;;;;5054782;28;20560;-22
2023/04/04 07:50:54;;;;;;;6.05;2.30;;;4.20;99.90;;;;;;5054689;28;20099;-22
2023/04/04 07:53:20;;;;;;;6.13;2.38;;;4.30;1.00;;;;;;5054601;28;20482;-22
2023/04/04 07:55:46;;;;;;;7.07;2.25;;;4.40;99.90;;;;;;5054632;28;20103;-22
2023/04/04 07:58:11;;;;;;;3.65;2.10;;;4.50;99.90;;;;;;5055395;28;20128;-22
2023/04/04 08:00:37;;;;;;;5.68;2.15;;;4.50;18.00;;;;;;5054568;28;20494;-22
2023/04/04 08:03:03;;;;;;;7.35;2.70;;;4.70;1.00;;;;;;5054168;28;20128;-22
2023/04/04 08:05:29;;;;;;;6.25;1.92;;;4.80;1.00;;;;;;5036728;28;20041;-22
2023/04/04 08:07:55;;;;;;;6.32;2.10;;;4.90;1.00;;;;;;5052435;28;20041;-22
2023/04/04 08:10:20;;;;;;;4.57;1.63;;;5.10;1.00;;;;;;5053947;28;20091;-22
2023/04/04 08:12:47;;;;;;;3.88;2.33;;;5.20;1.00;;;;;;5052807;28;20060;-22
2023/04/04 08:15:13;;;;;;;5.60;2.38;;;5.30;1.00;;;;;;5053100;28;20049;-21
2023/04/04 08:17:39;;;;;;;4.30;2.00;;;5.50;99.90;;;;;;5054100;28;20053;-21
2023/04/04 08:20:06;;;;;;;3.50;1.67;;;5.60;1.00;;;;;;5054717;28;20048;-21
2023/04/04 08:22:32;;;;;;;2.50;1.35;;;5.60;99.90;;;;;;5052854;28;20052;-22
2023/04/04 08:24:59;;;;;;;6.22;2.33;;;5.70;99.90;;;;;;5053010;28;20119;-22
2023/04/04 08:27:25;;;;;;;4.63;1.60;;;5.80;99.90;;;;;;5054032;28;20506;-22
2023/04/04 08:29:51;;;;;;;5.82;1.70;;;5.80;99.90;;;;;;5053999;28;20049;-23
2023/04/04 08:32:17;;;;;;;5.30;1.55;;;5.90;99.90;;;;;;5053670;28;20044;-21
2023/04/04 08:34:43;;;;;;;4.50;1.40;;;6.00;93.10;;;;;;5054660;28;20051;-21
2023/04/04 08:37:09;;;;;;;5.32;1.90;;;6.10;1.00;;;;;;5036047;28;20120;-21
2023/04/04 08:39:35;;;;;;;4.38;1.30;;;6.30;1.00;;;;;;5053840;28;20044;-22
2023/04/04 08:42:04;;;;;;;2.30;1.10;;;6.30;99.90;;;;;;5052929;28;20048;-21
2023/04/04 08:44:33;;;;;;;3.78;1.63;;;6.30;99.90;;;;;;5053824;28;20049;-21
2023/04/04 08:47:02;;;;;;;4.70;1.30;;;6.40;77.90;;;;;;5053753;28;20048;-21
2023/04/04 08:49:31;;;;;;;5.18;1.48;;;6.50;91.30;;;;;;5053699;28;20053;-21
2023/04/04 08:51:58;;;;;;;3.42;1.45;;;6.60;50.50;;;;;;5053729;28;20041;-22
2023/04/04 08:54:25;;;;;;;3.58;0.80;;;6.80;1.00;;;;;;5053605;28;20139;-21
2023/04/04 08:56:51;;;;;;;4.28;1.15;;;6.80;99.90;;;;;;5054160;28;20060;-21
2023/04/04 08:59:17;;;;;;;6.38;1.60;;;6.70;1.00;;;;;;5052459;28;20052;-22
2023/04/04 09:01:44;;;;;;;3.13;1.13;;;6.90;1.00;;;;;;5053596;28;20123;-22
2023/04/04 09:04:10;;;;;;;4.35;1.30;;;7.00;1.00;;;;;;5053547;28;20041;-21
2023/04/04 09:06:36;;;;;;;6.70;1.50;;;7.20;1.00;;;;;;5053609;28;20106;-21
2023/04/04 09:09:02;;;;;;;4.53;1.38;;;7.30;1.00;;;;;;5052347;28;20044;-21
2023/04/04 09:11:31;;;;;;;8.07;2.72;;;7.60;40.10;;;;;;5052830;28;20052;-22
2023/04/04 09:13:59;;;;;;;3.60;1.02;;;8.20;20.40;;;;;;5051947;28;20568;-22
2023/04/04 09:16:26;;;;;;;3.60;1.35;;;9.30;99.90;;;;;;5054303;28;20045;-22
2023/04/04 09:18:51;;;;;;;4.38;1.10;;;10.00;99.90;;;;;;5053317;28;20124;-22
2023/04/04 09:21:18;;;;;;;4.13;1.08;;;10.80;99.90;;;;;;5055572;28;20131;-22
2023/04/04 09:23:44;;;;;;;4.45;2.35;;;11.40;1.00;;;;;;5057802;28;20501;-23
2023/04/04 09:26:11;;;;;;;5.68;2.42;;;12.10;1.00;;;;;;5057767;28;20041;-23
2023/04/04 09:28:38;;;;;;;5.80;1.95;;;12.80;1.00;;;;;;5057388;28;20044;-23
2023/04/04 09:31:08;;;;;;;3.88;1.17;;;13.20;1.00;;;;;;5058197;28;20049;-23
2023/04/04 09:33:35;;;;;;;2.85;0.95;;;13.50;1.00;;;;;;5057605;28;20045;-23
2023/04/04 09:36:02;;;;;;;5.00;1.40;;;13.70;1.00;;;;;;5057256;28;20114;-23
2023/04/04 09:38:29;;;;;;;2.90;1.20;;;13.50;1.00;;;;;;5057244;28;20128;-23
2023/04/04 09:40:55;;;;;;;5.63;1.08;;;13.70;1.00;;;;;;5057473;28;20045;-23
2023/04/04 09:43:23;;;;;;;6.38;1.33;;;14.00;1.00;;;;;;5056199;28;20056;-23
2023/04/04 09:45:50;;;;;;;7.25;1.52;;;14.30;1.00;;;;;;5057395;28;20045;-23
2023/04/04 09:48:33;;;;;;;5.10;2.30;;;14.20;1.00;;;;;;5055969;28;20041;-23
2023/04/04 09:51:02;;;;;;;5.68;2.58;;;14.60;1.00;;;;;;5057637;28;20057;-23
2023/04/04 09:53:28;;;;;;;6.13;1.60;;;14.90;1.00;;;;;;5056863;28;20041;-23
2023/04/04 09:55:55;;;;;;;3.55;1.10;;;14.90;1.00;;;;;;5055978;28;20045;-23
2023/04/04 09:58:26;;;;;;;4.28;0.98;;;15.40;1.00;;;;;;5057646;28;20071;-23
2023/04/04 10:00:55;;;;;;;4.00;1.10;;;15.00;1.00;;;;;;5056677;28;20107;-23
2023/04/04 10:03:23;;;;;;;4.65;1.23;;;15.30;1.00;;;;;;5057315;28;20470;-23
2023/04/04 10:06:09;;;;;;;2.30;1.00;;;15.10;1.00;;;;;;5056733;28;20095;-23
2023/04/04 10:08:38;;;;;;;5.70;1.40;;;14.90;99.90;;;;;;5056764;28;20499;-23
2023/04/04 10:11:05;;;;;;;3.67;1.52;;;15.20;1.00;;;;;;5056615;28;20048;-23
2023/04/04 10:13:35;;;;;;;4.05;1.15;;;14.90;1.00;;;;;;5056449;28;20057;-23
2023/04/04 10:16:02;;;;;;;3.25;1.42;;;14.30;1.00;;;;;;5057421;28;20121;-23
2023/04/04 10:18:35;;;;;;;4.18;1.33;;;13.20;99.90;;;;;;5056428;28;20158;-23
2023/04/04 10:21:07;;;;;;;6.38;1.58;;;13.10;99.90;;;;;;5056708;28;20071;-23
2023/04/04 10:23:34;;;;;;;5.63;1.50;;;13.50;1.00;;;;;;5040079;28;20053;-23
2023/04/04 10:26:00;;;;;;;3.30;1.40;;;14.00;1.00;;;;;;5056353;28;20071;-23
2023/04/04 10:28:27;;;;;;;6.82;2.03;;;14.40;1.00;;;;;;5056588;28;20550;-23
2023/04/04 10:31:14;;;;;;;4.32;1.80;;;14.40;1.00;;;;;;5056144;28;20134;-23
2023/04/04 10:34:08;;;;;;;6.15;1.92;;;14.50;1.00;;;;;;5056727;28;20135;-23
2023/04/04 10:36:43;;;;;;;5.80;1.90;;;14.10;1.00;;;;;;5056170;28;20390;-23
2023/04/04 10:39:28;;;;;;;3.55;1.60;;;14.60;1.00;;;;;;5056783;28;20045;-23
2023/04/04 10:41:57;;;;;;;4.75;1.85;;;14.90;1.00;;;;;;5057140;28;20114;-23
2023/04/04 10:44:30;;;;;;;7.30;2.45;;;15.00;1.00;;;;;;5056005;28;20041;-23
2023/04/04 10:46:58;;;;;;;4.57;1.95;;;14.50;1.00;;;;;;5056578;28;20048;-23
2023/04/04 10:49:24;;;;;;;4.53;1.77;;;14.20;1.00;;;;;;5055904;28;20081;-23
2023/04/04 10:51:51;;;;;;;6.72;2.28;;;14.10;1.00;;;;;;5055831;28;20055;-23
2023/04/04 10:54:18;;;;;;;3.40;1.75;;;14.10;1.00;;;;;;5056279;28;20041;-23
2023/04/04 10:56:45;;;;;;;5.78;1.75;;;13.80;1.00;;;;;;5055816;28;20049;-23
2023/04/04 10:59:12;;;;;;;6.57;2.17;;;13.80;1.00;;;;;;5056297;28;20381;-24
2023/04/04 11:01:56;;;;;;;3.03;1.60;;;13.50;1.00;;;;;;5055722;28;20099;-23
2023/04/04 11:04:36;;;;;;;4.32;2.47;;;13.30;1.00;;;;;;5055720;28;20124;-23
2023/04/04 11:07:18;;;;;;;3.88;1.67;;;12.60;1.00;;;;;;5056192;28;20094;-23
2023/04/04 11:09:54;;;;;;;5.70;1.92;;;12.70;1.00;;;;;;5054859;28;20049;-23
2023/04/04 11:12:25;;;;;;;7.35;2.28;;;12.40;1.00;;;;;;5055510;28;20130;-23
2023/04/04 11:15:03;;;;;;;4.20;2.30;;;12.40;1.00;;;;;;5054994;28;20064;-23
2023/04/04 11:17:47;;;;;;;5.35;2.35;;;12.90;1.00;;;;;;5055403;28;20048;-23
2023/04/04 11:20:33;;;;;;;3.92;1.83;;;13.50;1.00;;;;;;5055381;28;20057;-23
2023/04/04 11:23:07;;;;;;;6.30;2.50;;;13.10;1.00;;;;;;5055636;28;20373;-23
2023/04/04 11:25:36;;;;;;;4.80;2.17;;;13.30;1.00;;;;;;5055236;28;20076;-23
2023/04/04 11:28:41;;;;;;;5.97;2.40;;;13.20;1.00;;;;;;5038183;28;20371;-23
2023/04/04 11:31:27;;;;;;;5.70;2.42;;;13.20;1.00;;;;;;5056055;28;20092;-23
2023/04/04 11:34:04;;;;;;;5.60;2.45;;;12.80;1.00;;;;;;5055374;28;20129;-23
2023/04/04 11:36:40;;;;;;;7.15;3.10;;;12.10;1.00;;;;;;5055438;28;20045;-23
2023/04/04 11:39:13;;;;;;;11.90;2.58;;;12.40;67.90;;;;;;5054054;28;20045;-23
2023/04/04 11:41:51;;;;;;;;;;;12.90;1.00;;;;;;5066449;28;20079;-23
2023/04/04 11:44:17;;;;;;;8.05;2.67;;;12.30;99.90;;;;;;5063090;28;19925;-23
2023/04/04 11:46:46;;;;;;;6.15;2.83;;;12.70;1.00;;;;;;5061616;28;20391;-23
2023/04/04 11:49:13;;;;;;;5.70;2.47;;;12.80;1.00;;;;;;5058553;28;20443;-22
2023/04/04 11:51:42;;;;;;;4.97;2.17;;;12.90;1.00;;;;;;5057961;28;20056;-22
2023/04/04 11:54:17;;;;;;;10.52;2.63;;;13.60;1.00;;;;;;5061942;28;20033;-23
2023/04/04 11:56:44;;;;;;;5.63;2.65;;;13.10;1.00;;;;;;5057854;28;20047;-23
2023/04/04 11:59:18;;;;;;;5.40;2.78;;;13.50;1.00;;;;;;5066011;28;20067;-23
2023/04/04 12:01:44;;;;;;;8.48;2.20;;;14.10;1.00;;;;;;5057186;28;20068;-22
2023/04/04 12:04:10;;;;;;;5.13;2.55;;;14.60;1.00;;;;;;5061250;28;20351;-22
2023/04/04 12:06:37;;;;;;;6.57;2.30;;;14.10;1.00;;;;;;5065497;28;20047;-22
2023/04/04 12:09:04;;;;;;;7.47;2.25;;;14.10;1.00;;;;;;5053293;28;20059;-22
2023/04/04 12:11:33;;;;;;;7.13;2.85;;;13.70;1.00;;;;;;5054640;28;20053;-22
2023/04/04 12:13:59;;;;;;;7.72;2.78;;;14.50;1.00;;;;;;5054129;28;20100;-22
2023/04/04 12:16:28;;;;;;;6.18;2.10;;;14.90;1.00;;;;;;5054304;28;20063;-22
2023/04/04 12:19:00;;;;;;;5.43;2.00;;;14.80;1.00;;;;;;5054200;28;20045;-22
2023/04/04 12:21:30;;;;;;;7.00;2.35;;;14.80;1.00;;;;;;5054296;28;20044;-22
2023/04/04 12:23:56;;;;;;;6.28;2.38;;;14.70;1.00;;;;;;5054109;28;20483;-22
2023/04/04 12:26:22;;;;;;;6.82;2.67;;;14.80;1.00;;;;;;5054130;28;20048;-22
2023/04/04 12:28:48;;;;;;;3.47;1.73;;;15.00;1.00;;;;;;5054562;28;20056;-22
2023/04/04 12:31:15;;;;;;;3.88;1.95;;;15.00;1.00;;;;;;5053429;28;20041;-22
2023/04/04 12:33:41;;;;;;;4.57;2.13;;;14.80;1.00;;;;;;5054460;28;20123;-22
2023/04/04 12:36:07;;;;;;;4.43;2.17;;;14.30;1.00;;;;;;5053874;28;20080;-22
2023/04/04 12:38:33;;;;;;;6.35;2.50;;;13.90;1.00;;;;;;5053887;28;20041;-22
2023/04/04 12:40:59;;;;;;;3.13;1.73;;;13.90;1.00;;;;;;5053246;28;20364;-22
2023/04/04 12:43:30;;;;;;;5.35;1.92;;;14.20;1.00;;;;;;5053683;28;20057;-22
2023/04/04 12:45:57;;;;;;;5.15;2.25;;;14.50;1.00;;;;;;5053793;28;20060;-22
2023/04/04 12:48:27;;;;;;;3.88;1.73;;;14.60;1.00;;;;;;5053784;28;20088;-22
2023/04/04 12:50:55;;;;;;;3.83;1.90;;;14.40;1.00;;;;;;5053784;28;20052;-22
2023/04/04 12:53:23;;;;;;;4.95;1.98;;;14.10;1.00;;;;;;5053625;28;20052;-22